San Ramon, CA (94583)

4:34 AM PDT on August 21, 2014 (GMT -0700)
Summerview Court | Change Station
CLOSE
Current Station
Personal Weather Station
Location: San Ramon, CA
Elevation: 427 ft
Nearby Weather Stations

Elev 427 ft 37.76 °N, 121.95 °W | Updated 7 seconds ago

Mostly Cloudy
Mostly Cloudy
56.7 °F
Feels Like 56.7 °F
N
0.4
Wind Variable Wind from East
Gusts 0.4 mph

Today
High -- | Low -- °F
--% Chance of Precip.
Yesterday
High -- | Low -- °F
Precip. -- in
6:28 AM 7:52 PM
Waning Crescent, 15% visible
Pressure 29.90 in
Visibility 10.0 miles
Clouds Mostly Cloudy 1100 ft
Dew Point 53 °F
Humidity 88%
Rainfall 0.00 in
Snow Depth Not available.
UV 0 out of 12
Pollen 5.90 out of 12
Ozone Good
PM2.5 Good
Flu Activity Not available.
METAR KLVK 211053Z AUTO 00000KT 10SM BKN011 16/13 A2991 RMK AO2 SLP124 T01560133

More Conditions Fewer Conditions

Pressure 29.90 in
Visibility 10.0 miles
Clouds Mostly Cloudy 1100 ft
Dew Point 53 °F
Humidity 88%
Rainfall 0.00 in
Snow Depth Not available.
UV 0 out of 12
Pollen 5.90 out of 12
Ozone Good
PM2.5 Good
Flu Activity Not available.
METAR KLVK 211053Z AUTO 00000KT 10SM BKN011 16/13 A2991 RMK AO2 SLP124 T01560133

More Conditions Fewer Conditions

10-Day Weather Forecast

Almanac

Astronomy

Aug. 21, 2014 Rise Set
Actual Time 6:28 AM PDT 7:52 PM PDT
Civil Twilight 6:01 AM PDT 8:19 PM PDT
Nautical Twilight 5:28 AM PDT 8:52 PM PDT
Astronomical Twilight 4:53 AM PDT 9:27 PM PDT
Moon 3:05 AM PDT 5:23 PM PDT
Length of Visible Light 14h 18m
Length of Day
13h 23m
Tomorrow will be 2m 14s shorter.
Waning Crescent, 15% of the Moon is Illuminated
Today
Waning Crescent
Aug 25
New
Sep 2
First Quarter
Sep 8
Full
Sep 15
Last Quarter

Today's Extremes

State Highs State Lows

Community

WunderPhotos

Upload Photos

1,745,862 photos uploaded!

Nearby

Air Quality

  Air Quality AQ Index Pollutant
Yesterday Good
OZONE
Yesterday Good
PM2.5
Current Good
OZONE
Current Good
PM2.5
Thursday Good
OZONE
Friday Good
OZONE
Saturday Good
OZONE
Sunday Good
OZONE
Monday Good
OZONE

Snow Depth

Station Depth Elevation
Blue Lakes 0 in 8000 ft
Forestdale Creek 0 in 8029 ft
Echo Peak 0 in 7800 ft
Ebbetts Pass 0 in 8700 ft
Fallen Leaf 0 in 6300 ft

Earthquake Activity

City Distance Mag. Time & Date
King City, California 116 miles 2.7 10:26 PM PDT
2014-08-15
Kettleman City, California 158 miles 2.9 11:32 PM PDT
2014-08-14
King City, California 116 miles 2.9 8:01 PM PDT
2014-08-14
Mariposa, California 110 miles 2.5 4:54 AM PDT
2014-08-14
Minimum magnitude displayed is 2.5.

Coastal Water Temperatures

Place Temperature
No Stations Reporting

Nearby Weather Stations